Flight Track Log - Related Links

Times and Time Zones

All times are in EDT time to prevent confusion due to time zone crossing. See the DAL2572 flight status page for this flight to view local times or setup timezone preferences in your user account.

Time Position Orientation Groundspeed Altitude Reporting Facility
EDT Latitude Longitude Course Direction KTS MPH feet Rate Location/Type
Tue 11:03:04 PM 44.9000 -93.2500 288° West 149 171 2,500  Level Minneapolis TRACON
Tue 11:03:38 PM 44.9156 -93.2808 305° West 165 190 3,000 1,438 Climbing Minneapolis Center
Tue 11:04:40 PM 44.9461 -93.3644 297° West 241 277 4,800 2,439 Climbing Minneapolis Center
Tue 11:05:00 PM 45.0042 -93.6363 297° West  Level FlightAware Approximate
Tue 11:05:41 PM 44.9750 -93.4614 293° West 266 306 8,000  Level Minneapolis Center
Tue 11:06:00 PM 45.0529 -93.7752 295° West  Level FlightAware Approximate
Tue 11:06:42 PM 45.0028 -93.5622 291° West 276 318 10,500  Level Minneapolis Center
Tue 11:07:00 PM 45.0961 -93.9177 290° West  Level FlightAware Approximate
Tue 11:07:44 PM 45.0428 -93.7081 291° West 340 391 12,100  Level Minneapolis Center
Tue 11:08:00 PM 45.1294 -94.0657 288° West  Level FlightAware Approximate
Tue 11:08:45 PM 45.0792 -93.8394 291° West 358 412 14,600  Level Minneapolis Center
Tue 11:09:46 PM 45.1144 -93.9761 290° West 368 423 16,800 2,049 Climbing Minneapolis Center
Tue 11:10:48 PM 45.1472 -94.1178 288° West 377 434 18,800 1,805 Climbing Minneapolis Center
Tue 11:11:49 PM 45.1828 -94.2636 289° West 389 448 20,500 1,707 Climbing Minneapolis Center
Tue 11:12:51 PM 45.2197 -94.4167 289° West 394 453 22,300 1,610 Climbing Minneapolis Center
Tue 11:13:52 PM 45.2544 -94.5631 289° West 402 463 23,800 1,366 Climbing Minneapolis Center
Tue 11:14:54 PM 45.2886 -94.7336 286° West 415 478 25,100 1,171 Climbing Minneapolis Center
Tue 11:15:55 PM 45.3153 -94.8961 283° West 420 483 26,200 1,082 Climbing Minneapolis Center
Tue 11:16:56 PM 45.3444 -95.0617 284° West 428 493 27,300 1,073 Climbing Minneapolis Center
Tue 11:17:58 PM 45.3781 -95.2650 283° West 438 504 28,400 1,415 Climbing Minneapolis Center
Tue 11:18:59 PM 45.4069 -95.4336 284° West 443 510 30,200 1,415 Climbing Minneapolis Center
Tue 11:20:01 PM 45.4336 -95.5967 283° West 432 497 31,300 1,122 Climbing Minneapolis Center
Tue 11:21:02 PM 45.4606 -95.7575 283° West 422 486 32,500 1,082 Climbing Minneapolis Center
Tue 11:22:03 PM 45.4858 -95.9172 283° West 421 484 33,500 976 Climbing Minneapolis Center
Tue 11:23:05 PM 45.5114 -96.0719 283° West 409 471 34,500 878 Climbing Minneapolis Center
Tue 11:24:06 PM 45.5361 -96.2264 283° West 404 465 35,300 732 Climbing Minneapolis Center
Tue 11:25:08 PM 45.5589 -96.3781 282° West 397 457 36,000 341 Climbing Minneapolis Center
Tue 11:26:09 PM 45.5878 -96.5572 283° West 393 452 36,000  Level Minneapolis Center
Tue 11:27:10 PM 45.6114 -96.7067 283° West 392 451 36,000  Level Minneapolis Center
Tue 11:28:11 PM 45.6336 -96.8572 282° West 391 450 36,000  Level Minneapolis Center
Tue 11:29:13 PM 45.6581 -97.0058 283° West 390 449 36,000  Level Minneapolis Center
Tue 11:30:14 PM 45.6808 -97.1569 282° West 390 449 36,000  Level Minneapolis Center
Tue 11:31:15 PM 45.7025 -97.3064 282° West 389 448 36,000  Level Minneapolis Center
Tue 11:32:17 PM 45.7253 -97.4550 282° West 388 447 36,000  Level Minneapolis Center
Tue 11:33:18 PM 45.7469 -97.6031 282° West 384 442 36,000  Level Minneapolis Center
Tue 11:34:19 PM 45.7675 -97.7519 281° West 384 442 36,000  Level Minneapolis Center
Tue 11:35:20 PM 45.7933 -97.9300 282° West 383 441 36,000  Level Minneapolis Center
Tue 11:36:21 PM 45.8147 -98.0769 282° West 382 440 36,000  Level Minneapolis Center
Tue 11:37:22 PM 45.8378 -98.2336 282° West 382 440 36,000  Level Minneapolis Center
Tue 11:38:24 PM 45.8578 -98.3819 281° West 382 440 36,000  Level Minneapolis Center
Tue 11:39:25 PM 45.8775 -98.5281 281° West 381 438 36,000  Level Minneapolis Center
Tue 11:40:26 PM 45.8978 -98.6753 281° West 380 437 36,000  Level Minneapolis Center
Tue 11:41:28 PM 45.9178 -98.8247 281° West 380 437 36,000  Level Minneapolis Center
Tue 11:42:29 PM 45.9372 -98.9722 281° West 380 437 36,000  Level Minneapolis Center
Tue 11:43:30 PM 45.9569 -99.1194 281° West 380 437 36,000  Level Minneapolis Center
Tue 11:44:31 PM 45.9764 -99.2669 281° West 380 437 36,000  Level Minneapolis Center
Tue 11:45:32 PM 45.9958 -99.4161 281° West 380 437 36,000  Level Minneapolis Center
Tue 11:46:33 PM 46.0192 -99.5947 281° West 380 437 36,000  Level Minneapolis Center
Tue 11:47:34 PM 46.0378 -99.7442 280° West 380 437 36,000  Level Minneapolis Center
Tue 11:48:36 PM 46.0561 -99.8933 280° West 380 437 36,000  Level Minneapolis Center
Tue 11:49:37 PM 46.0753 -100.0425 281° West 380 437 36,000  Level Minneapolis Center
Tue 11:50:38 PM 46.0931 -100.1925 280° West 382 440 36,000  Level Minneapolis Center
Tue 11:51:39 PM 46.1114 -100.3425 280° West 382 440 36,000  Level Minneapolis Center
Tue 11:52:40 PM 46.1294 -100.4925 280° West 382 440 36,000  Level Minneapolis Center
Tue 11:53:41 PM 46.1467 -100.6436 279° West 382 440 36,000  Level Minneapolis Center
Tue 11:54:42 PM 46.1642 -100.7961 279° West 382 440 36,000  Level Minneapolis Center
Tue 11:55:43 PM 46.1811 -100.9464 279° West 382 440 36,000  Level Minneapolis Center
Tue 11:56:44 PM 46.2025 -101.1264 280° West 382 440 36,000  Level Minneapolis Center
Tue 11:57:45 PM 46.2197 -101.2789 279° West 382 440 36,000  Level Minneapolis Center
Tue 11:58:46 PM 46.2372 -101.4306 280° West 382 440 36,000  Level Minneapolis Center
Tue 11:59:47 PM 46.2542 -101.5828 279° West 382 440 36,000  Level Minneapolis Center
Wed 12:00:47 AM 46.2706 -101.7344 279° West 383 441 36,000  Level Minneapolis Center
Wed 12:01:48 AM 46.2867 -101.8875 279° West 383 441 36,000  Level Minneapolis Center
Wed 12:02:49 AM 46.3039 -102.0428 279° West 386 444 36,000  Level Minneapolis Center
Wed 12:03:50 AM 46.3197 -102.1989 278° West 386 444 36,000  Level Minneapolis Center
Wed 12:04:51 AM 46.3350 -102.3525 278° West 387 445 36,000  Level Minneapolis Center
Wed 12:05:52 AM 46.3511 -102.5056 279° West 386 444 36,000  Level Minneapolis Center
Wed 12:06:53 AM 46.3661 -102.6597 278° West 386 444 36,000 -50 Level Minneapolis Center
Wed 12:07:53 AM 46.3825 -102.8119 279° West 386 444 35,900 -50 Descending Minneapolis Center
Wed 12:08:54 AM 46.3956 -102.9658 277° West 386 444 35,900 49 Level Minneapolis Center
Wed 12:09:55 AM 46.4103 -103.1175 278° West 385 443 36,000  Climbing Minneapolis Center
Wed 12:10:56 AM 46.4253 -103.2703 278° West 385 443 35,900  Descending Minneapolis Center
Wed 12:11:56 AM 46.4389 -103.4242 277° West 385 443 36,000  Climbing Minneapolis Center
Wed 12:12:59 AM 46.4536 -103.6061 277° West 385 443 35,900  Descending Salt Lake Center
Wed 12:14:00 AM 46.4678 -103.7589 278° West 385 443 36,000 49 Climbing Salt Lake Center
Wed 12:15:01 AM 46.4806 -103.9083 277° West 382 440 36,000 -49 Level Salt Lake Center
Wed 12:16:03 AM 46.4942 -104.0622 277° West 382 440 35,900 -49 Descending Salt Lake Center
Wed 12:17:04 AM 46.5061 -104.2172 276° West 382 440 35,900 49 Level Salt Lake Center
Wed 12:18:05 AM 46.5203 -104.3694 278° West 383 441 36,000 49 Climbing Salt Lake Center
Wed 12:19:07 AM 46.5331 -104.5264 277° West 386 444 36,000  Level Salt Lake Center
Wed 12:20:08 AM 46.5456 -104.6828 277° West 387 445 36,000  Level Salt Lake Center
Wed 12:21:09 AM 46.5586 -104.8364 277° West 387 445 36,000  Level Salt Lake Center
Wed 12:22:10 AM 46.5719 -105.0206 276° West 386 444 36,000  Level Salt Lake Center
Wed 12:23:12 AM 46.5831 -105.1792 276° West 387 445 36,000  Level Salt Lake Center
Wed 12:24:13 AM 46.5958 -105.3381 277° West 392 451 36,000 -197 Level Salt Lake Center
Wed 12:25:14 AM 46.6078 -105.4964 276° West 392 451 35,600 -634 Descending Salt Lake Center
Wed 12:26:16 AM 46.6211 -105.6500 277° West 392 451 34,700 -927 Descending Salt Lake Center
Wed 12:27:17 AM 46.6314 -105.8056 276° West 392 451 33,700 -984 Descending Salt Lake Center
Wed 12:28:18 AM 46.6422 -105.9664 276° West 392 451 32,700 -836 Descending Salt Lake Center
Wed 12:29:19 AM 46.6556 -106.1350 277° West 400 460 32,000 -341 Descending Salt Lake Center
Wed 12:30:21 AM 46.6669 -106.3028 276° West 409 471 32,000  Level Salt Lake Center
Wed 12:31:22 AM 46.6806 -106.4978 276° West 409 471 32,000  Level Salt Lake Center
Wed 12:32:23 AM 46.6903 -106.6606 275° West 409 471 32,000  Level Salt Lake Center
Wed 12:33:24 AM 46.7014 -106.8258 276° West 409 471 32,000  Level Salt Lake Center
Wed 12:34:25 AM 46.7111 -106.9906 275° West 409 471 32,000  Level Salt Lake Center
Wed 12:35:27 AM 46.7214 -107.1536 275° West 409 471 32,000  Level Salt Lake Center
Wed 12:36:28 AM 46.7300 -107.3169 274° West 408 470 32,000  Level Salt Lake Center
Wed 12:37:29 AM 46.7392 -107.4822 275° West 408 470 32,000  Level Salt Lake Center
Wed 12:38:30 AM 46.7486 -107.6472 275° West 410 472 32,000  Level Salt Lake Center
Wed 12:39:31 AM 46.7578 -107.8142 275° West 410 472 32,000  Level Salt Lake Center
Wed 12:40:32 AM 46.7661 -107.9833 274° West 416 479 32,000  Level Salt Lake Center
Wed 12:41:34 AM 46.7761 -108.1825 274° West 416 479 32,000  Level Salt Lake Center
Wed 12:42:35 AM 46.7836 -108.3503 274° West 416 479 32,000  Level Salt Lake Center
Wed 12:43:36 AM 46.7925 -108.5208 274° West 419 482 32,000  Level Salt Lake Center
Wed 12:44:37 AM 46.8003 -108.6883 274° West 419 482 32,000  Level Salt Lake Center
Wed 12:45:38 AM 46.8078 -108.8564 274° West 418 481 32,000  Level Salt Lake Center
Wed 12:46:39 AM 46.8264 -109.0222 279° West 418 481 32,000 -49 Level Salt Lake Center
Wed 12:47:40 AM 46.8472 -109.1764 281° West 414 476 31,900 -49 Descending Salt Lake Center
Wed 12:48:42 AM 46.8678 -109.3425 280° West 414 476 31,900  Level Salt Lake Center
Wed 12:49:43 AM 46.8858 -109.5092 279° West 414 476 31,900 49 Level Salt Lake Center
Wed 12:50:44 AM 46.9100 -109.7086 280° West 415 478 32,000 49 Climbing Salt Lake Center
Wed 12:51:45 AM 46.9283 -109.8761 279° West 415 478 32,000  Level Salt Lake Center
Wed 12:52:46 AM 46.9475 -110.0433 280° West 415 478 32,000 -49 Level Salt Lake Center
Wed 12:53:47 AM 46.9653 -110.2106 279° West 415 478 31,900 -49 Descending Salt Lake Center
Wed 12:54:48 AM 46.9836 -110.3819 279° West 421 484 31,900  Level Salt Lake Center
Wed 12:55:49 AM 47.0022 -110.5503 279° West 422 486 31,900 49 Level Salt Lake Center
Wed 12:56:51 AM 47.0197 -110.7203 279° West 421 484 32,000 49 Climbing Salt Lake Center
Wed 12:57:52 AM 47.0372 -110.8903 279° West 422 486 32,000  Level Salt Lake Center
Wed 12:58:53 AM 47.0547 -111.0597 279° West 421 484 32,000 -443 Level Salt Lake Center
Wed 12:59:54 AM 47.0719 -111.2325 278° West 423 487 31,100 -984 Descending Salt Lake Center
Wed 01:00:55 AM 47.0894 -111.4069 278° West 426 490 30,000 -976 Descending Salt Lake Center
Wed 01:01:57 AM 47.1069 -111.5861 278° West 435 501 29,100 -934 Descending Salt Lake Center
Wed 01:02:57 AM 47.1239 -111.7650 278° West 440 506 28,100 -1,091 Descending Salt Lake Center
Wed 01:03:58 AM 47.1444 -111.9778 278° West 440 506 26,900 -1,082 Descending Salt Lake Center
Wed 01:04:59 AM 47.1600 -112.1525 278° West 437 503 25,900 -976 Descending Salt Lake Center
Wed 01:06:01 AM 47.1767 -112.3250 278° West 428 493 24,900 -976 Descending Salt Lake Center
Wed 01:07:02 AM 47.1919 -112.4983 277° West 428 493 23,900 -934 Descending Salt Lake Center
Wed 01:08:03 AM 47.2058 -112.6681 277° West 423 487 23,000 -934 Descending Salt Lake Center
Wed 01:09:04 AM 47.2217 -112.8383 278° West 423 487 22,000 -984 Descending Salt Lake Center
Wed 01:10:05 AM 47.2350 -113.0050 277° West 419 482 21,000 -984 Descending Salt Lake Center
Wed 01:11:06 AM 47.2506 -113.1722 278° West 418 481 20,000 -934 Descending Salt Lake Center
Wed 01:12:07 AM 47.2642 -113.3403 277° West 418 481 19,100 -927 Descending Salt Lake Center
Wed 01:13:09 AM 47.2764 -113.5031 276° West 401 461 18,100 -885 Descending Salt Lake Center
Wed 01:14:09 AM 47.2894 -113.6647 277° West 401 461 17,300 -843 Descending Salt Lake Center
Wed 01:15:10 AM 47.3017 -113.8233 277° West 393 452 16,400 -885 Descending Salt Lake Center
Wed 01:16:11 AM 47.3139 -113.9772 277° West 382 440 15,500 -1,377 Descending Salt Lake Center
Wed 01:17:12 AM 47.3217 -114.1553 274° West 368 423 13,600 -1,438 Descending Salt Lake Center
Wed 01:18:12 AM 47.2994 -114.2881 256° West 336 387 12,600 -992 Descending Salt Lake Center
Wed 01:19:13 AM 47.2636 -114.4017 245° Southwest 312 359 11,600 -984 Descending Salt Lake Center
Wed 01:20:14 AM 47.2111 -114.4994 232° Southwest 309 356 10,600 -885 Descending Salt Lake Center
Wed 01:21:15 AM 47.1417 -114.5178 190° South 274 315 9,800 -639 Descending Salt Lake Center
Wed 01:22:16 AM 47.1144 -114.4314 115° Southeast 238 274 9,300 -787 Descending Salt Lake Center
Wed 01:23:17 AM 47.0756 -114.3636 130° Southeast 204 235 8,200 -1,377 Descending Salt Lake Center
Wed 01:24:18 AM 47.0403 -114.3042 131° Southeast 198 228 6,500 -1,279 Descending Salt Lake Center
Wed 01:25:19 AM 47.0086 -114.2497 130° Southeast 182 209 5,600 -787 Descending Salt Lake Center
Wed 01:26:20 AM 46.9817 -114.2039 131° Southeast 155 178 4,900 -744 Descending Salt Lake Center
Wed 01:27:20 AM 46.9569 -114.1611 130° Southeast 144 166 4,100 -744 Descending Salt Lake Center
Wed 01:28:21 AM 46.9283 -114.1131 131° Southeast 144 166 3,400 -689 Descending Salt Lake Center

Login

Don't have an account? Register now (free) for customized features, flight alerts, and more!